CYMA

Mayo Airport

Mayo, , Canada
METAR CYMA 241200Z 00000KT 20SM FEW220 M03/M04 A2991 RMK CI2 CLIMAT 1.4/-3.5/0.0 SLP156
Observed Flight Rules
Sep-24 @ 12:00 UTC (13 minutes ago) Visual Flight Rules
Visibility Clouds
20 miles
  • Few at 22,000' AGL
Temperatures Readings
Current -3°C / 27°F
Dewpoint -4°C / 25°F
Humidity 93%
Altimeter 29.91" Hg
Pressure 1015.6 hPa
Elevation 504
METAR CYMA 241200Z 00000KT 20SM FEW220 M03/M04 A2991 RMK CI2 CLIMAT 1.4/-3.5/0.0 SLP156
Observed Flight Rules
Sep-24 @ 12:00 UTC
(13 minutes ago)
VFR
Clouds
  • Few at 22,000' AGL
Temperature Dewpoint
-3°C / 27°F -4°C / 25°F
Humidity Altimeter Pressure
93% 29.91" Hg 1015.6 hPa